createdAt,value
2023-01-04T00:00:02.565Z,84.6
2023-01-04T00:15:02.767Z,84.3
2023-01-04T00:30:03.211Z,84.1
2023-01-04T00:45:02.648Z,83.7
2023-01-04T01:00:03.078Z,83.5
2023-01-04T01:15:02.549Z,83.1
2023-01-04T01:30:02.966Z,82.6
2023-01-04T01:45:02.570Z,82.3
2023-01-04T02:00:02.842Z,82.2
2023-01-04T02:15:02.272Z,84.4
2023-01-04T02:30:02.723Z,87.5
2023-01-04T02:45:03.183Z,90.2
2023-01-04T03:00:02.597Z,92.2
2023-01-04T03:15:03.034Z,93.4
2023-01-04T03:30:02.630Z,94.6
2023-01-04T03:45:09.487Z,95.7
2023-01-04T04:00:02.348Z,96.6
2023-01-04T04:15:02.781Z,97.3
2023-01-04T04:30:02.237Z,97.6
2023-01-04T04:45:02.653Z,97.9
2023-01-04T05:00:03.094Z,98.2
2023-01-04T05:15:02.608Z,98.7
2023-01-04T05:30:02.970Z,99.3
2023-01-04T05:45:02.623Z,99.4
2023-01-04T06:00:02.847Z,99.7
2023-01-04T06:15:02.283Z,99.8
2023-01-04T06:30:02.730Z,99.9
2023-01-04T06:45:03.171Z,100.0
2023-01-04T07:00:02.649Z,100.0
2023-01-04T07:15:03.038Z,100.0
2023-01-04T07:45:02.939Z,100.0
2023-01-04T08:00:02.409Z,100.0
2023-01-04T08:15:02.831Z,100.0
2023-01-04T08:30:02.256Z,100.0
2023-01-04T08:45:02.703Z,100.0
2023-01-04T09:00:03.151Z,100.0
2023-01-04T09:15:02.698Z,100.0
2023-01-04T09:30:03.017Z,100.0
2023-01-04T09:45:23.053Z,100.0
2023-01-04T10:00:02.941Z,100.0
2023-01-04T10:15:02.297Z,100.0
2023-01-04T10:30:02.785Z,100.0
2023-01-04T10:45:06.763Z,100.0
2023-01-04T11:00:02.704Z,100.0
2023-01-04T11:15:03.088Z,100.0
2023-01-04T11:30:02.728Z,100.0
2023-01-04T11:45:02.981Z,100.0
2023-01-04T12:00:02.422Z,100.0
2023-01-04T12:15:02.850Z,100.0
2023-01-04T12:30:02.319Z,100.0
2023-01-04T12:45:02.751Z,100.0
2023-01-04T13:00:03.211Z,100.0
2023-01-04T13:15:02.751Z,100.0
2023-01-04T13:30:02.049Z,100.0
2023-01-04T13:45:19.759Z,100.0
2023-01-04T14:00:02.945Z,100.0
2023-01-04T14:15:02.368Z,100.0
2023-01-04T14:30:02.812Z,100.0
2023-01-04T14:45:02.229Z,100.0
2023-01-04T15:00:02.795Z,100.0
2023-01-04T15:15:03.109Z,100.0
2023-01-04T15:30:02.738Z,100.0
2023-01-04T15:45:02.969Z,99.6
2023-01-04T16:00:02.409Z,98.8
2023-01-04T16:15:02.837Z,97.5
2023-01-04T16:30:02.264Z,96.0
2023-01-04T16:45:02.795Z,93.7
2023-01-04T17:00:03.173Z,90.9
2023-01-04T17:15:43.088Z,88.9
2023-01-04T17:30:03.027Z,88.2
2023-01-04T17:45:02.510Z,88.4
2023-01-04T18:00:02.888Z,87.8
2023-01-04T18:15:02.304Z,88.3
2023-01-04T18:30:02.820Z,88.6
2023-01-04T18:45:03.174Z,87.7
2023-01-04T19:00:02.851Z,87.1
2023-01-04T19:15:02.110Z,84.8
2023-01-04T19:30:02.460Z,83.6
2023-01-04T19:45:02.950Z,83.3
2023-01-04T20:00:02.344Z,83.4
2023-01-04T20:15:02.851Z,84.0
2023-01-04T20:30:02.212Z,83.7
2023-01-04T20:45:02.850Z,83.6
2023-01-04T21:00:02.122Z,84.3
2023-01-04T21:15:02.560Z,84.4
2023-01-04T21:30:03.018Z,84.0
2023-01-04T21:45:02.420Z,84.4
2023-01-04T22:00:02.892Z,84.5
2023-01-04T22:15:02.353Z,84.4
2023-01-04T22:30:02.872Z,84.2
2023-01-04T22:45:04.280Z,86.3
2023-01-04T23:15:03.080Z,92.4
2023-01-04T23:30:02.497Z,93.2
2023-01-04T23:45:02.944Z,92.8
